Time;durP1;ratioP1;P1;durP2;ratioP2;P2;SDS_P1;SDS_P2;PMS_P1;PMS_P2;Temp;Humidity;BMP_temperature;BMP_pressure;BME280_temperature;BME280_humidity;BME280_pressure;Samples;Min_cycle;Max_cycle;Signal;HPM_P1;HPM_P2
2022/07/23 00:01:51;;;;;;;;;16.00;16.00;;;;;23.03;57.55;99498.03;6283251;20;3559593;-59
2022/07/23 00:04:20;;;;;;;;;18.00;18.00;;;;;22.69;58.77;99501.06;6276362;20;2831498;-59
2022/07/23 00:06:49;;;;;;;;;15.00;15.00;;;;;22.75;58.29;99498.50;6311042;20;3548238;-59
2022/07/23 00:09:18;;;;;;;;;17.00;17.00;;;;;22.75;58.60;99500.38;6306775;20;3571085;-59
2022/07/23 00:11:46;;;;;;;;;17.33;17.33;;;;;22.77;58.93;99492.81;6291702;20;3557574;-62
2022/07/23 00:14:15;;;;;;;;;22.67;18.00;;;;;22.69;58.65;99495.59;6278317;20;3568002;-59
2022/07/23 00:16:44;;;;;;;;;20.00;18.67;;;;;22.66;59.19;99495.97;6279405;20;3564894;-59
2022/07/23 00:19:12;;;;;;;;;16.00;14.00;;;;;22.81;58.72;99494.19;6275046;20;2490154;-60
2022/07/23 00:21:40;;;;;;;;;19.00;18.67;;;;;22.95;58.89;99489.84;6280059;20;3569182;-60
2022/07/23 00:24:09;;;;;;;;;19.00;17.33;;;;;22.91;58.23;99485.75;6278021;20;3561837;-60
2022/07/23 00:26:37;;;;;;;;;18.50;16.00;;;;;22.67;59.40;99497.66;6275505;20;2816918;-60
2022/07/23 00:29:06;;;;;;;;;20.00;16.67;;;;;22.77;59.79;99490.94;6282198;20;3567056;-60
2022/07/23 00:31:35;;;;;;;;;17.67;17.67;;;;;22.80;59.14;99497.94;6278787;20;3551033;-59
2022/07/23 00:34:04;;;;;;;;;19.00;17.33;;;;;23.04;59.04;99493.41;6308003;20;2844073;-60
2022/07/23 00:36:34;;;;;;;;;23.00;17.67;;;;;22.86;59.76;99497.25;6305704;20;2841122;-60
2022/07/23 00:39:03;;;;;;;;;20.00;18.00;;;;;22.85;59.38;99492.78;6307908;20;3564853;-54
2022/07/23 00:41:32;;;;;;;;;20.00;18.00;;;;;22.93;59.44;99489.16;6311922;20;2839943;-55
2022/07/23 00:44:24;;;;;;;;;20.00;18.50;;;;;22.68;59.74;99488.44;6278619;20;2835791;-56
2022/07/23 00:46:57;;;;;;;;;20.00;17.00;;;;;22.50;60.43;99486.78;6276005;20;2819043;-59
2022/07/23 00:49:30;;;;;;;;;21.00;18.00;;;;;22.48;61.13;99496.19;6278839;20;2844242;-56
2022/07/23 00:52:03;;;;;;;;;17.00;17.00;;;;;22.40;60.27;99490.75;6307374;20;2831493;-59
2022/07/23 00:54:31;;;;;;;;;17.00;17.00;;;;;22.80;59.18;99495.19;6271107;20;2831497;-59
2022/07/23 00:57:00;;;;;;;;;20.50;19.00;;;;;22.69;59.87;99495.59;6276579;20;2831751;-58
2022/07/23 00:59:29;;;;;;;;;15.00;15.00;;;;;22.54;60.19;99492.78;6279302;20;2483617;-59
2022/07/23 01:01:58;;;;;;;;;18.67;18.67;;;;;22.58;60.21;99489.47;6309501;20;3567946;-59
2022/07/23 01:04:27;;;;;;;;;20.00;18.00;;;;;22.53;60.28;99486.41;6277176;20;2827377;-59
2022/07/23 01:06:55;;;;;;;;;19.00;19.00;;;;;22.76;59.97;99485.66;6280083;20;3581626;-58
2022/07/23 01:09:24;;;;;;;;;18.67;18.67;;;;;22.70;59.97;99489.13;6271916;20;3565895;-59
2022/07/23 01:11:56;;;;;;;;;21.33;19.00;;;;;22.51;60.79;99498.56;6274306;20;2841036;-59
2022/07/23 01:14:24;;;;;;;;;18.33;18.33;;;;;22.01;61.99;99495.09;6309699;20;3561728;-59
2022/07/23 01:16:53;;;;;;;;;19.50;19.50;;;;;22.02;62.00;99493.19;6272623;20;2827405;-59
2022/07/23 01:19:22;;;;;;;;;15.00;12.00;;;;;22.03;61.63;99490.28;6269854;20;2806559;-55
2022/07/23 01:21:52;;;;;;;;;19.00;18.00;;;;;21.89;62.02;99477.31;6279094;20;2833606;-59
2022/07/23 01:24:20;;;;;;;;;19.67;16.00;;;;;21.90;61.87;99479.00;6278729;20;3567972;-59
2022/07/23 01:26:50;;;;;;;;;18.00;18.00;;;;;21.53;63.13;99488.59;6312142;20;3581563;-59
2022/07/23 01:29:20;;;;;;;;;18.00;18.00;;;;;21.52;64.17;99486.03;6286599;20;3560638;-59
2022/07/23 01:31:49;;;;;;;;;16.00;16.00;;;;;21.67;63.55;99482.47;6279925;20;2823245;-58
2022/07/23 01:34:18;;;;;;;;;18.67;17.33;;;;;21.52;63.77;99486.88;6282978;20;3569063;-58
2022/07/23 01:36:47;;;;;;;;;24.33;19.00;;;;;21.39;63.99;99478.34;6312239;20;3588172;-57
2022/07/23 01:39:16;;;;;;;;;20.00;19.33;;;;;21.52;63.05;99486.88;6279346;20;2842090;-58
2022/07/23 01:41:46;;;;;;;;;19.50;16.00;;;;;21.60;63.13;99473.22;6311509;20;2833601;-58
2022/07/23 01:44:19;;;;;;;;;21.67;19.33;;;;;21.42;63.94;99472.53;6274982;20;2832563;-54
2022/07/23 01:46:48;;;;;;;;;20.33;19.00;;;;;21.72;63.59;99475.59;6306803;20;3551262;-53
2022/07/23 01:49:17;;;;;;;;;21.00;18.67;;;;;21.76;63.64;99485.19;6276725;20;3575236;-51
2022/07/23 01:52:00;;;;;;;;;17.33;15.00;;;;;21.67;63.53;99479.72;6280813;20;3548169;-59
2022/07/23 01:54:33;;;;;;;;;19.00;19.00;;;;;22.06;62.48;99478.97;6305498;20;3561795;-59
2022/07/23 01:57:02;;;;;;;;;19.00;17.50;;;;;21.31;64.79;99472.84;6270307;20;2837747;-59
2022/07/23 01:59:31;;;;;;;;;21.00;18.67;;;;;21.52;63.98;99478.69;6276210;20;3572109;-59
2022/07/23 02:02:00;;;;;;;;;20.67;19.33;;;;;21.43;64.33;99476.97;6306011;20;3576310;-59
2022/07/23 02:04:29;;;;;;;;;18.67;18.00;;;;;21.49;64.21;99470.84;6275223;20;3564982;-59
2022/07/23 02:06:57;;;;;;;;;20.00;17.00;;;;;21.46;64.76;99474.78;6276183;20;3565947;-56
2022/07/23 02:09:27;;;;;;;;;19.33;19.00;;;;;21.72;63.36;99470.16;6271378;20;2835880;-59
2022/07/23 02:11:57;;;;;;;;;22.00;19.00;;;;;21.55;63.86;99477.50;6312877;20;3553392;-59
2022/07/23 02:14:27;;;;;;;;;18.00;17.33;;;;;21.72;63.25;99481.06;6274992;20;2834568;-59
2022/07/23 02:16:56;;;;;;;;;23.33;21.67;;;;;21.48;63.91;99480.91;6309812;20;3583615;-59
2022/07/23 02:19:25;;;;;;;;;19.67;18.33;;;;;21.87;62.64;99479.34;6275138;20;3580463;-59
2022/07/23 02:21:54;;;;;;;;;22.33;20.67;;;;;21.90;62.30;99473.53;6276830;20;3559636;-59
2022/07/23 02:24:23;;;;;;;;;21.67;20.00;;;;;22.02;62.10;99480.38;6275653;20;3579465;-59
2022/07/23 02:26:51;;;;;;;;;22.00;18.00;;;;;22.02;61.45;99477.63;6269750;20;2837869;-59
2022/07/23 02:29:20;;;;;;;;;19.00;17.67;;;;;21.66;64.13;99488.06;6283670;20;3561684;-59
2022/07/23 02:31:48;;;;;;;;;16.33;16.33;;;;;21.77;63.15;99478.69;6318379;20;3548136;-58
2022/07/23 02:34:17;;;;;;;;;21.67;20.33;;;;;21.87;62.67;99479.34;6315683;20;3574320;-58
2022/07/23 02:36:46;;;;;;;;;19.00;19.00;;;;;21.97;62.33;99481.91;6275810;20;3575266;-57
2022/07/23 02:39:15;;;;;;;;;20.00;18.00;;;;;22.22;61.33;99477.28;6279143;20;2844179;-58
2022/07/23 02:41:44;;;;;;;;;20.33;18.67;;;;;21.95;62.80;99490.28;6310497;20;3572212;-59
2022/07/23 02:44:12;;;;;;;;;21.00;19.00;;;;;21.98;62.40;99486.34;6281303;20;2827495;-58
2022/07/23 02:46:41;;;;;;;;;21.50;20.00;;;;;21.86;62.95;99491.34;6279745;20;2827682;-58
2022/07/23 02:49:11;;;;;;;;;24.00;21.00;;;;;22.14;61.99;99486.31;6278845;20;2837798;-57
2022/07/23 02:51:39;;;;;;;;;21.00;19.00;;;;;21.79;62.30;99487.56;6314390;20;3574194;-58
2022/07/23 02:54:09;;;;;;;;;26.67;22.67;;;;;21.78;62.15;99491.34;6279079;20;3589808;-57
2022/07/23 02:56:38;;;;;;;;;24.00;20.00;;;;;21.75;62.81;99488.91;6309555;20;3558684;-57
2022/07/23 02:59:06;;;;;;;;;18.67;16.00;;;;;21.40;64.32;99478.16;6284227;20;3560681;-53
2022/07/23 03:01:36;;;;;;;;;19.00;19.00;;;;;21.36;64.25;99489.56;6314872;20;3577368;-56
2022/07/23 03:04:04;;;;;;;;;22.00;19.00;;;;;21.25;64.70;99483.41;6279124;20;2831518;-53
2022/07/23 03:06:33;;;;;;;;;21.00;18.50;;;;;21.03;65.63;99482.16;6278593;20;2824289;-54
2022/07/23 03:09:04;;;;;;;;;23.33;21.00;;;;;20.76;66.82;99480.53;6280478;20;3569540;-53
2022/07/23 03:11:32;;;;;;;;;21.00;21.00;;;;;21.31;64.15;99478.31;6314840;20;3583565;-58
2022/07/23 03:14:01;;;;;;;;;22.00;19.67;;;;;21.59;62.99;99492.50;6281431;20;3569181;-56
2022/07/23 03:16:30;;;;;;;;;20.00;20.00;;;;;21.58;62.78;99491.66;6310733;20;3553567;-53
2022/07/23 03:18:58;;;;;;;;;21.50;20.50;;;;;21.31;63.78;99487.34;6279592;20;2726307;-55
2022/07/23 03:21:27;;;;;;;;;21.00;20.67;;;;;21.09;64.84;99491.56;6314062;20;3605432;-53
2022/07/23 03:23:56;;;;;;;;;23.33;20.00;;;;;21.13;64.83;99492.94;6281098;20;3568091;-55
2022/07/23 03:26:25;;;;;;;;;20.33;20.33;;;;;;;;6280891;20;3557556;-54
2022/07/23 03:28:53;;;;;;;;;22.67;21.67;;;;;21.00;65.51;99490.69;6312799;20;3573172;-54
2022/07/23 03:31:22;;;;;;;;;20.00;19.00;;;;;20.85;65.99;99499.69;6280225;20;3572206;-59
2022/07/23 03:33:51;;;;;;;;;20.00;19.00;;;;;20.67;66.90;99497.91;6279114;20;3566896;-57
2022/07/23 03:36:19;;;;;;;;;23.33;21.33;;;;;20.67;67.43;99502.50;6280699;20;3572093;-58
2022/07/23 03:38:50;;;;;;;;;21.67;21.67;;;;;20.68;67.10;99488.69;6275096;20;2841075;-58
2022/07/23 03:41:20;;;;;;;;;24.00;20.00;;;;;20.81;66.30;99500.00;6314365;20;3577316;-59
2022/07/23 03:43:50;;;;;;;;;20.67;20.00;;;;;20.99;65.67;99497.19;6280274;20;2846273;-59
2022/07/23 03:46:18;;;;;;;;;21.33;21.33;;;;;21.16;64.86;99495.31;6313716;20;3581504;-58
2022/07/23 03:48:48;;;;;;;;;20.67;20.00;;;;;21.41;64.24;99495.44;6277502;20;2844132;-59
2022/07/23 03:51:21;;;;;;;;;19.33;19.33;;;;;21.30;64.81;99492.97;6310218;20;3583720;-59
2022/07/23 03:53:49;;;;;;;;;20.67;18.33;;;;;21.32;64.77;99490.94;6281623;20;3575361;-58
2022/07/23 03:56:18;;;;;;;;;21.00;21.00;;;;;21.22;64.98;99497.41;6277113;20;3584614;-59
2022/07/23 03:58:47;;;;;;;;;23.33;20.67;;;;;21.57;64.04;99492.69;6283244;20;3583655;-58
2022/07/23 04:01:16;;;;;;;;;26.00;22.33;;;;;21.60;63.89;99506.00;6280999;20;3576299;-58
2022/07/23 04:03:46;;;;;;;;;20.00;19.00;;;;;21.83;63.28;99494.41;6279225;20;2834657;-59
2022/07/23 04:06:14;;;;;;;;;24.00;22.00;;;;;21.87;63.55;99496.59;6279902;20;3575308;-58
2022/07/23 04:08:43;;;;;;;;;21.67;19.67;;;;;21.96;63.64;99494.75;6277563;20;3577383;-59
2022/07/23 04:11:12;;;;;;;;;20.00;20.00;;;;;22.28;62.17;99496.59;6281730;20;2720142;-59
2022/07/23 04:13:40;;;;;;;;;22.33;21.00;;;;;22.45;61.78;99500.13;6313687;20;3582579;-59
2022/07/23 04:16:09;;;;;;;;;19.00;19.00;;;;;22.70;61.25;99492.69;6277825;20;3570137;-60
2022/07/23 04:18:38;;;;;;;;;18.00;18.00;;;;;23.11;60.01;99497.13;6279336;20;3559609;-59
2022/07/23 04:21:07;;;;;;;;;21.67;19.33;;;;;23.03;59.54;99499.94;6276160;20;3573167;-59
2022/07/23 04:23:36;;;;;;;;;24.67;23.00;;;;;23.39;59.59;99503.81;6280556;20;3600267;-59
2022/07/23 04:26:05;;;;;;;;;20.00;18.50;;;;;23.57;57.74;99500.78;6277124;20;2834679;-59
2022/07/23 04:28:33;;;;;;;;;18.67;18.67;;;;;23.69;57.42;99492.97;6283209;20;3552395;-58
2022/07/23 04:31:02;;;;;;;;;16.67;16.67;;;;;23.55;57.18;99497.34;6276707;20;3569090;-59
2022/07/23 04:33:31;;;;;;;;;21.00;21.00;;;;;23.74;56.88;99498.78;6280617;20;3581619;-59
2022/07/23 04:35:59;;;;;;;;;22.00;21.00;;;;;23.85;56.39;99500.22;6274233;20;2811877;-60
2022/07/23 04:38:29;;;;;;;;;23.33;19.33;;;;;24.04;55.70;99498.84;6272713;20;2834985;-59
2022/07/23 04:40:58;;;;;;;;;18.50;17.50;;;;;24.06;56.07;99510.50;6310069;20;2829428;-60
2022/07/23 04:43:27;;;;;;;;;18.00;18.00;;;;;24.22;55.49;99510.31;6277349;20;3557051;-59
2022/07/23 04:45:55;;;;;;;;;22.00;19.00;;;;;24.19;56.59;99515.34;6277883;20;3581542;-60
2022/07/23 04:48:24;;;;;;;;;21.67;21.67;;;;;24.23;55.85;99511.19;6278796;20;3577305;-59
2022/07/23 04:50:53;;;;;;;;;17.50;17.50;;;;;24.44;53.90;99511.34;6275786;20;2831515;-59
2022/07/23 04:53:22;;;;;;;;;16.00;16.00;;;;;24.59;53.64;99511.34;6279274;20;2819440;-59
2022/07/23 04:55:50;;;;;;;;;15.67;14.67;;;;;24.48;53.29;99509.91;6281228;20;3546139;-60
2022/07/23 04:58:20;;;;;;;;;18.00;17.67;;;;;24.78;53.33;99517.28;6309027;20;3560662;-59
2022/07/23 05:00:49;;;;;;;;;17.50;17.50;;;;;24.86;52.69;99522.72;6277754;20;2834681;-60
2022/07/23 05:03:18;;;;;;;;;19.33;18.00;;;;;24.85;52.10;99518.25;6286668;20;3558577;-59
2022/07/23 05:05:47;;;;;;;;;18.00;18.00;;;;;24.98;52.07;99515.66;6268013;20;2835851;-59
2022/07/23 05:08:16;;;;;;;;;21.00;19.50;;;;;25.05;51.55;99519.34;6276460;20;2825444;-59
2022/07/23 05:10:44;;;;;;;;;17.33;16.67;;;;;25.02;52.15;99514.25;6282886;20;3564905;-58
2022/07/23 05:13:16;;;;;;;;;18.00;18.00;;;;;25.51;51.25;99515.47;6280480;20;3571061;-59
2022/07/23 05:15:45;;;;;;;;;17.00;17.00;;;;;25.48;51.51;99516.69;6280802;20;2827387;-60
2022/07/23 05:18:14;;;;;;;;;19.33;18.33;;;;;25.75;50.36;99522.47;6283909;20;3572133;-60
2022/07/23 05:20:43;;;;;;;;;19.00;17.33;;;;;25.66;50.18;99524.50;6281191;20;3559623;-60
2022/07/23 05:23:12;;;;;;;;;18.00;18.00;;;;;26.02;49.87;99527.22;6277363;20;2833655;-59
2022/07/23 05:25:41;;;;;;;;;17.33;17.33;;;;;26.18;49.57;99527.97;6280871;20;2500269;-59
2022/07/23 05:28:10;;;;;;;;;21.33;21.33;;;;;26.22;49.51;99523.75;6310818;20;3571107;-59
2022/07/23 05:30:38;;;;;;;;;18.67;17.33;;;;;26.08;49.21;99525.56;6281899;20;3564812;-60
2022/07/23 05:33:08;;;;;;;;;19.50;17.50;;;;;26.15;49.92;99528.38;6280869;20;2833753;-60
2022/07/23 05:35:36;;;;;;;;;21.00;18.00;;;;;26.46;48.58;99528.81;6279624;20;2838977;-59
2022/07/23 05:38:05;;;;;;;;;19.00;16.67;;;;;26.64;47.48;99521.97;6282178;20;3561779;-60
2022/07/23 05:40:34;;;;;;;;;15.67;14.67;;;;;26.79;47.62;99519.94;6279118;20;2489855;-59
2022/07/23 05:43:02;;;;;;;;;21.50;17.00;;;;;27.01;47.61;99523.41;6311352;20;2833635;-60
2022/07/23 05:45:31;;;;;;;;;21.67;19.00;;;;;26.95;46.95;99520.66;6280149;20;3560788;-59
2022/07/23 05:48:00;;;;;;;;;17.33;17.33;;;;;27.25;47.49;99524.84;6284426;20;3550272;-60
2022/07/23 05:50:29;;;;;;;;;17.00;17.00;;;;;27.32;46.92;99525.69;6277806;20;2843995;-59
2022/07/23 05:52:58;;;;;;;;;16.50;14.00;;;;;27.66;46.12;99531.31;6308863;20;2821122;-59
2022/07/23 05:55:28;;;;;;;;;14.00;12.00;;;;;27.90;45.70;99530.72;6278784;20;2491954;-60
2022/07/23 05:57:58;;;;;;;;;19.00;15.67;;;;;28.07;45.21;99533.94;6312193;20;3551435;-60
2022/07/23 06:00:28;;;;;;;;;17.00;16.67;;;;;27.95;45.48;99532.88;6279624;20;3565033;-59
2022/07/23 06:02:57;;;;;;;;;18.00;18.00;;;;;28.21;45.07;99535.63;6276198;20;3577371;-60
2022/07/23 06:05:26;;;;;;;;;17.00;14.50;;;;;28.13;45.49;99544.13;6279577;20;2818226;-59
2022/07/23 06:07:55;;;;;;;;;15.67;15.67;;;;;28.44;45.49;99539.91;6282789;20;3558602;-59
2022/07/23 06:10:24;;;;;;;;;13.50;13.50;;;;;28.57;44.02;99537.13;6280577;20;2807622;-60
2022/07/23 06:12:52;;;;;;;;;13.33;11.33;;;;;28.71;44.42;99542.63;6282580;20;2483593;-56
2022/07/23 06:15:30;;;;;;;;;16.67;15.33;;;;;28.72;45.35;99541.53;6313819;20;3554403;-57
2022/07/23 06:17:59;;;;;;;;;13.50;12.00;;;;;29.09;43.69;99538.03;6277683;20;2795036;-62
2022/07/23 06:20:27;;;;;;;;;15.00;15.00;;;;;29.03;43.51;99538.91;6277875;20;2491920;-60
2022/07/23 06:22:56;;;;;;;;;14.00;14.00;;;;;29.37;43.15;99534.09;6314130;20;3530486;-56
2022/07/23 06:25:25;;;;;;;;;16.33;15.00;;;;;29.33;41.97;99538.38;6312588;20;3547233;-57
2022/07/23 06:27:53;;;;;;;;;13.67;13.00;;;;;29.72;41.20;99542.00;6307956;20;3523191;-57
2022/07/23 06:30:22;;;;;;;;;12.00;12.00;;;;;29.82;39.93;99536.84;6278899;20;2483601;-58
2022/07/23 06:32:52;;;;;;;;;14.67;13.00;;;;;29.81;39.86;99537.91;6311070;20;3521182;-57
2022/07/23 06:35:21;;;;;;;;;15.00;14.00;;;;;30.03;39.46;99532.00;6310826;20;2483579;-55
2022/07/23 06:37:49;;;;;;;;;13.67;13.00;;;;;30.21;39.48;99534.84;6309783;20;2485748;-56
2022/07/23 06:40:18;;;;;;;;;15.00;13.00;;;;;30.57;39.12;99541.56;6312160;20;2808620;-56
2022/07/23 06:42:46;;;;;;;;;16.00;15.00;;;;;30.62;38.61;99537.03;6278371;20;2483781;-55
2022/07/23 06:45:15;;;;;;;;;15.00;15.00;;;;;30.93;37.99;99534.38;6308441;20;3546508;-56
2022/07/23 06:47:44;;;;;;;;;16.00;12.50;;;;;31.22;37.89;99541.06;6275644;20;2809622;-57
2022/07/23 06:50:12;;;;;;;;;15.50;14.00;;;;;31.24;37.26;99544.47;6278364;20;2808658;-55
2022/07/23 06:52:41;;;;;;;;;15.00;13.67;;;;;31.57;36.76;99532.09;6279796;20;2483759;-54
2022/07/23 06:55:10;;;;;;;;;18.00;15.00;;;;;31.83;36.09;99519.75;6309245;20;3548706;-58
2022/07/23 06:57:39;;;;;;;;;16.00;14.00;;;;;32.34;35.54;99526.63;6270956;20;2814880;-59
2022/07/23 07:00:09;;;;;;;;;14.67;14.00;;;;;32.67;34.93;99531.59;6281556;20;3539855;-58
2022/07/23 07:02:37;;;;;;;;;14.33;13.00;;;;;32.65;34.79;99530.16;6314278;20;3521122;-58
2022/07/23 07:05:07;;;;;;;;;14.00;14.00;;;;;32.94;34.06;99526.38;6310602;20;2483641;-57
2022/07/23 07:07:35;;;;;;;;;13.33;11.67;;;;;32.86;34.79;99528.66;6309006;20;3517003;-59
2022/07/23 07:10:05;;;;;;;;;17.00;14.00;;;;;33.31;33.71;99534.41;6308789;20;2483609;-50
2022/07/23 07:12:37;;;;;;;;;16.00;13.33;;;;;32.93;34.52;99530.22;6311425;20;3543027;-58
2022/07/23 07:15:06;;;;;;;;;14.67;13.00;;;;;33.12;33.90;99532.88;6272743;20;2483606;-58
2022/07/23 07:17:35;;;;;;;;;15.67;13.33;;;;;32.79;34.75;99529.66;6309066;20;3541902;-58
2022/07/23 07:20:04;;;;;;;;;13.33;13.33;;;;;32.49;35.66;99529.81;6286212;20;3560827;-58
2022/07/23 07:22:33;;;;;;;;;14.67;13.67;;;;;33.21;33.54;99534.22;6315626;20;3527318;-59
2022/07/23 07:25:02;;;;;;;;;14.00;13.33;;;;;32.81;34.10;99532.22;6315809;20;2489852;-58
2022/07/23 07:27:30;;;;;;;;;12.33;12.33;;;;;33.47;34.21;99540.25;6314820;20;2483735;-61
2022/07/23 07:29:59;;;;;;;;;14.00;13.00;;;;;33.80;32.54;99533.97;6312148;20;2804434;-61
2022/07/23 07:32:27;;;;;;;;;18.00;14.33;;;;;33.30;33.15;99524.34;6284215;20;2483766;-61
2022/07/23 07:35:16;;;;;;;;;13.33;12.00;;;;;33.66;34.16;99527.88;6317509;20;3540666;-61
2022/07/23 07:37:45;;;;;;;;;12.00;12.00;;;;;33.99;33.52;99529.00;6314020;20;3529503;-61
2022/07/23 07:40:13;;;;;;;;;11.50;11.50;;;;;34.15;32.55;99533.78;6308701;20;2774213;-61
2022/07/23 07:42:54;;;;;;;;;14.33;14.33;;;;;34.14;33.30;99523.75;6279538;20;2483806;-61
2022/07/23 07:45:24;;;;;;;;;16.00;14.67;;;;;34.28;32.57;99524.25;6316979;20;3555665;-60
2022/07/23 07:47:53;;;;;;;;;15.50;14.00;;;;;34.54;32.15;99523.53;6281582;20;2812834;-53
2022/07/23 07:50:22;;;;;;;;;15.33;12.00;;;;;34.19;31.59;99526.63;6287580;20;3531589;-55
2022/07/23 07:52:51;;;;;;;;;13.67;12.67;;;;;34.47;31.03;99524.84;6316050;20;3541986;-57
2022/07/23 07:55:20;;;;;;;;;14.33;12.00;;;;;34.28;31.80;99530.69;6279578;20;3534886;-51
2022/07/23 07:57:48;;;;;;;;;12.67;11.67;;;;;34.31;31.06;99521.81;6317987;20;3517506;-55
2022/07/23 08:00:18;;;;;;;;;10.67;10.67;;;;;34.44;31.15;99526.19;6309649;20;3511840;-56
2022/07/23 08:02:53;;;;;;;;;14.00;12.50;;;;;34.74;30.25;99525.81;6287201;20;2810779;-55
2022/07/23 08:05:28;;;;;;;;;9.67;9.67;;;;;34.83;29.65;99530.97;6275639;20;3494016;-55
2022/07/23 08:07:59;;;;;;;;;15.67;11.00;;;;;35.26;29.46;99520.94;6311580;20;3519199;-57
2022/07/23 08:10:31;;;;;;;;;11.33;11.33;;;;;35.48;29.45;99518.13;6312863;20;3527376;-57
2022/07/23 08:13:00;;;;;;;;;13.00;13.00;;;;;35.09;30.19;99519.06;6317350;20;3533584;-52
2022/07/23 08:15:31;;;;;;;;;14.33;13.00;;;;;35.60;30.34;99525.28;6312113;20;3525230;-54
2022/07/23 08:18:00;;;;;;;;;14.33;12.33;;;;;35.58;29.69;99523.88;6315006;20;2797274;-57
2022/07/23 08:20:29;;;;;;;;;15.00;14.00;;;;;35.58;30.79;99521.91;6316350;20;3539840;-58
2022/07/23 08:23:07;;;;;;;;;16.67;13.33;;;;;35.91;28.51;99519.97;6316920;20;3547153;-57
2022/07/23 08:25:42;;;;;;;;;13.33;10.67;;;;;35.75;28.92;99524.59;6277224;20;3507654;-54
2022/07/23 08:28:13;;;;;;;;;8.00;8.00;;;;;36.08;28.29;99536.69;6311210;20;3463829;-56
2022/07/23 08:30:44;;;;;;;;;13.33;11.33;;;;;35.70;29.73;99527.31;6318685;20;3503968;-61
2022/07/23 08:33:18;;;;;;;;;15.67;13.33;;;;;35.90;28.86;99526.69;6315864;20;3548148;-61
2022/07/23 08:36:04;;;;;;;;;12.67;12.00;;;;;35.64;28.71;99524.75;6281892;20;3507572;-62
2022/07/23 08:38:35;;;;;;;;;11.33;10.33;;;;;36.02;29.24;99520.91;6313562;20;3509765;-60
2022/07/23 08:41:10;;;;;;;;;10.00;10.00;;;;;35.28;29.62;99525.16;6311941;20;3493011;-60
2022/07/23 08:43:40;;;;;;;;;12.50;12.50;;;;;35.67;28.72;99510.25;6311746;20;2796246;-60
2022/07/23 08:46:09;;;;;;;;;13.00;13.00;;;;;36.07;27.93;99522.94;6284361;20;3531522;-60
2022/07/23 08:48:38;;;;;;;;;11.67;10.00;;;;;36.17;28.10;99523.03;6316348;20;2489875;-60
2022/07/23 08:51:10;;;;;;;;;11.50;11.50;;;;;35.94;28.37;99511.09;6315147;20;2789992;-61
2022/07/23 08:53:40;;;;;;;;;13.50;12.50;;;;;36.82;28.30;99521.84;6281783;20;2803496;-61
2022/07/23 08:56:09;;;;;;;;;14.00;12.00;;;;;36.60;28.35;99518.34;6278175;20;2812798;-61
2022/07/23 08:58:38;;;;;;;;;10.00;10.00;;;;;37.62;26.95;99532.84;6283406;20;2792162;-60
2022/07/23 09:01:07;;;;;;;;;11.67;11.67;;;;;37.47;27.20;99524.38;6314479;20;3521098;-61
2022/07/23 09:03:39;;;;;;;;;13.00;13.00;;;;;37.01;27.68;99524.19;6317870;20;3532642;-60
2022/07/23 09:06:08;;;;;;;;;14.50;12.00;;;;;37.51;26.72;99531.16;6311951;20;2810794;-61
2022/07/23 09:08:44;;;;;;;;;16.00;14.00;;;;;37.75;26.78;99532.31;6280934;20;3538772;-60
2022/07/23 09:11:17;;;;;;;;;10.00;10.00;;;;;37.27;26.08;99526.00;6282455;20;2794664;-62
2022/07/23 09:13:52;;;;;;;;;15.50;13.50;;;;;36.95;26.17;99525.28;6282710;20;2812747;-60
2022/07/23 09:16:31;;;;;;;;;13.00;11.67;;;;;37.83;26.87;99528.13;6285546;20;3520185;-59
2022/07/23 09:19:05;;;;;;;;;14.33;12.00;;;;;37.94;26.27;99520.56;6314021;20;3520077;-61
2022/07/23 09:21:37;;;;;;;;;14.33;14.33;;;;;37.67;26.16;99518.84;6316568;20;3541886;-61
2022/07/23 09:24:15;;;;;;;;;21.14;17.00;;;;;38.04;26.42;99516.97;6333561;20;3562749;-61
2022/07/23 09:26:49;;;;;;;;;11.67;11.67;;;;;38.39;26.47;99518.91;6284042;20;3527304;-61
2022/07/23 09:29:26;;;;;;;;;11.00;9.00;;;;;38.17;25.47;99517.25;6312630;20;3489965;-62
2022/07/23 09:32:05;;;;;;;;;22.43;21.71;;;;;38.03;26.59;99504.09;6328450;20;3580456;-63
2022/07/23 09:34:39;;;;;;;;;13.00;12.00;;;;;37.84;26.14;99507.41;6288017;20;3532527;-62
2022/07/23 09:37:14;;;;;;;;;10.33;10.00;;;;;38.32;25.38;99507.16;6309368;20;3506504;-61
2022/07/23 09:39:46;;;;;;;;;14.00;14.00;;;;;38.57;25.78;99507.13;6276412;20;2816920;-57
2022/07/23 09:42:23;;;;;;;;;16.00;16.00;;;;;37.29;26.29;99501.38;6285191;20;3559601;-61
2022/07/23 09:44:56;;;;;;;;;15.67;14.67;;;;;37.64;26.71;99497.00;6284361;20;3544071;-63
2022/07/23 09:47:31;;;;;;;;;13.00;12.33;;;;;38.52;25.03;99495.06;6278665;20;3526327;-60
2022/07/23 09:50:03;;;;;;;;;13.67;13.67;;;;;37.67;26.09;99496.44;6315160;20;3535712;-63
2022/07/23 09:52:50;;;;;;;;;25.25;25.00;;;;;37.76;25.85;99496.75;6332149;20;3597171;-61
2022/07/23 09:55:20;;;;;;;;;15.00;13.00;;;;;38.01;24.89;99490.34;6309563;20;2816948;-61
2022/07/23 09:57:55;;;;;;;;;13.67;11.67;;;;;38.54;24.34;99492.81;6280358;20;3535661;-61
2022/07/23 10:00:25;;;;;;;;;15.00;14.00;;;;;38.24;23.97;99488.09;6311671;20;3540874;-61
2022/07/23 10:02:54;;;;;;;;;14.00;12.00;;;;;38.36;24.62;99495.06;6276333;20;2802336;-61
2022/07/23 10:05:24;;;;;;;;;13.00;12.00;;;;;38.06;24.97;99483.88;6277527;20;2805583;-61
2022/07/23 10:07:54;;;;;;;;;17.67;17.00;;;;;38.43;23.75;99475.19;6282271;20;3566993;-61
2022/07/23 10:10:25;;;;;;;;;17.00;14.00;;;;;38.80;23.73;99479.56;6281912;20;3556522;-61
2022/07/23 10:15:26;;;;;;;;;12.67;11.00;;;;;38.84;23.00;99483.50;6282568;20;2483630;-61
2022/07/23 10:17:55;;;;;;;;;12.67;12.67;;;;;39.15;22.41;99481.41;6315135;20;3529411;-61
2022/07/23 10:20:24;;;;;;;;;12.33;11.00;;;;;38.93;23.47;99470.56;6312601;20;3511719;-60
2022/07/23 10:23:32;;;;;;;;;13.00;13.00;;;;;38.38;23.32;99473.19;6314533;20;3535659;-57
2022/07/23 10:26:36;;;;;;;;;12.00;11.00;;;;;38.88;23.57;99476.19;6274909;20;3509765;-57
2022/07/23 10:29:44;;;;;;;;;15.33;15.33;;;;;39.23;22.74;99465.91;6280145;20;3545103;-58
2022/07/23 10:32:56;;;;;;;;;17.00;15.00;;;;;39.08;22.93;99459.25;6280393;20;3558579;-57
2022/07/23 10:36:04;;;;;;;;;14.67;13.67;;;;;39.34;22.55;99461.09;6281555;20;3539805;-58
2022/07/23 10:39:19;;;;;;;;;10.00;10.00;;;;;38.81;23.22;99468.06;6277237;20;3498786;-61
2022/07/23 10:41:48;;;;;;;;;13.33;13.00;;;;;39.23;22.51;99460.28;6281478;20;3526264;-61
2022/07/23 10:44:25;;;;;;;;;15.00;13.00;;;;;38.48;23.05;99460.31;6308011;20;2802363;-59
2022/07/23 10:47:13;;;;;;;;;12.00;11.67;;;;;38.18;22.66;99448.84;6282883;20;2483565;-59
2022/07/23 10:49:43;;;;;;;;;14.00;13.00;;;;;38.45;22.70;99446.84;6316574;20;3539952;-59
2022/07/23 10:52:22;;;;;;;;;11.00;11.00;;;;;39.29;22.67;99459.16;6281820;20;3502316;-59
2022/07/23 10:55:16;;;;;;;;;12.00;12.00;;;;;38.87;22.74;99443.63;6283581;20;3525378;-60
2022/07/23 10:57:51;;;;;;;;;10.67;10.00;;;;;39.07;22.50;99440.72;6319332;20;2780660;-59
2022/07/23 11:00:28;;;;;;;;;13.33;12.67;;;;;39.92;22.05;99444.44;6315808;20;3533615;-60
2022/07/23 11:03:24;;;;;;;;;10.67;10.67;;;;;38.81;21.78;99441.94;6319171;20;3530453;-60
2022/07/23 11:05:53;;;;;;;;;13.33;13.33;;;;;39.50;21.22;99438.25;6314797;20;3534610;-60
2022/07/23 11:08:22;;;;;;;;;13.50;13.00;;;;;39.13;20.94;99430.31;6317016;20;2826305;-60
2022/07/23 11:11:09;;;;;;;;;15.67;14.00;;;;;39.75;20.46;99433.56;6289351;20;3546199;-59
2022/07/23 11:13:47;;;;;;;;;14.00;14.00;;;;;39.01;21.07;99415.78;6280780;20;3541897;-60
2022/07/23 11:16:23;;;;;;;;;14.00;13.00;;;;;39.62;20.16;99415.38;6312255;20;2806516;-60
2022/07/23 11:18:59;;;;;;;;;13.00;13.00;;;;;39.44;21.23;99416.91;6288348;20;3538821;-59
2022/07/23 11:21:41;;;;;;;;;12.00;12.00;;;;;39.56;21.04;99425.00;6316492;20;3513773;-59
2022/07/23 11:24:19;;;;;;;;;12.00;11.00;;;;;39.64;20.66;99415.09;6317417;20;3497158;-60